Anamosa, IA

1:30 AM CDT on August 27, 2016 (GMT -0500)
Castle Grove | | Change Station

Elev 961 ft 42.22 °N, 91.31 °W | Updated 10 seconds ago

Overcast
Overcast
63.7 °F
Feels Like 63.7 °F
N
6.7
Wind Variable Wind from NNW
Gusts 7.4 mph

Today
High -- | Low -- °F
--% Chance of Precip.
Yesterday
High -- | Low -- °F
Precip. -- in
Pressure 30.07 in
Visibility 10.0 miles
Clouds Overcast 3200 ft
Dew Point 63 °F
Humidity 96%
Rainfall 0.02 in
Snow Depth Not available.
6:25 AM 7:46 PM
Waning Crescent, 27% visible
METAR KMXO 270615Z AUTO 36004KT 10SM OVC032 18/17 A3007 RMK AO2
Pressure 30.07 in
Visibility 10.0 miles
Clouds Overcast 3200 ft
Dew Point 63 °F
Humidity 96%
Rainfall 0.02 in
Snow Depth Not available.
6:25 AM 7:46 PM
Waning Crescent, 27% visible
METAR KMXO 270615Z AUTO 36004KT 10SM OVC032 18/17 A3007 RMK AO2

10-Day Weather Forecast

Almanac

Astronomy

Aug. 27, 2016 Rise Set
Actual Time
Civil Twilight
Nautical Twilight
Astronomical Twilight
Moon
Length of Visible Light
Length of Day
Tomorrow will be .
, % of the Moon is Illuminated

Today's Extremes

State Highs State Lows

Community

WunderPhotos

Upload Photos

1,935,303 photos uploaded!

WunderBlog® & News

Nearby

Air Quality

  Air Quality AQ Index Pollutant
Not available.

Snow Depth

Station Depth Elevation

Earthquake Activity

City Distance Mag. Time & Date
Minimum magnitude displayed is 2.5.

Coastal Water Temperatures

Place Temperature

Stations

Nearby Weather Stations

Station Location Temp. Windchill Dew Point Humidity Wind Precip. Elev Updated Type
                   

Watches & Warnings

There are currently no watches in effect.